Terminal Aerodrome Forecast
Issued by NWS

Home | Current Version | Previous Version | Graphics & Text | Print | Product List | Glossary On
Versions: 1 2 3 4 5 6 7 8 9 10 11 12 13 14 15 16 17 18 19 20
605
FTUS43 KABR 302320
TAFATY
TAF
KATY 302320Z 0100/0124 32013KT P6SM -SN FEW010 BKN014 OVC020
      TEMPO 0100/0104 3SM -SN
     FM010600 32011KT P6SM OVC008
     FM011200 32009KT P6SM OVC003
     FM011700 32009KT P6SM OVC008=

USA.gov is the U.S. government's official web portal to all federal, state and local government web resources and services.